In Rescue
 
Open Full Screen Window  High Contrast Mode
Wind Gusting 00 knots
09
January 22, 2020 3:55 PM CST
Weather Information
Wind Direction
  190 °
Wind Speed
  09 kt (10 mph)
Wind Gust
  00 kt (0 mph)
Altimeter
29.81 in
Visibility
4 SM
Temperature
01° C
34° F
Dewpoint
00° C
32° F
Humidity
93%
1hr Rain Fall
00.00 in.
24hr Rain Fall
00.04 in.
Sky Condition
Overcast @ 700 ft
IFR

METAR KMJQ 222155Z AUTO 19009KT 4SM OVC007 01/00 A2981 RMK AO2 PWINO

FAA Disclaimer: The data displayed is for advisory purposes only and is not to be used for flight planning or operations.